createdAt,value
2023-05-08T00:01:57.618Z,15.95
2023-05-08T00:04:00.695Z,16.03
2023-05-08T00:06:05.489Z,16.08
2023-05-08T00:08:08.736Z,16.08
2023-05-08T00:10:12.670Z,16.01
2023-05-08T00:12:16.097Z,16.11
2023-05-08T00:14:19.064Z,16.03
2023-05-08T00:16:23.523Z,16.11
2023-05-08T00:18:26.680Z,15.95
2023-05-08T00:20:29.639Z,16.02
2023-05-08T00:22:32.737Z,16.03
2023-05-08T00:24:35.763Z,15.97
2023-05-08T00:26:38.910Z,15.87
2023-05-08T00:28:41.953Z,15.82
2023-05-08T00:30:45.014Z,15.86
2023-05-08T00:32:49.477Z,15.90
2023-05-08T00:34:54.397Z,15.94
2023-05-08T00:36:57.966Z,15.90
2023-05-08T00:39:01.164Z,15.81
2023-05-08T00:41:04.917Z,15.81
2023-05-08T00:43:08.768Z,15.72
2023-05-08T00:45:12.750Z,15.68
2023-05-08T00:47:16.203Z,15.69
2023-05-08T00:49:20.938Z,15.67
2023-05-08T00:51:24.359Z,15.66
2023-05-08T00:53:27.749Z,15.63
2023-05-08T00:55:31.219Z,15.57
2023-05-08T00:57:35.750Z,15.66
2023-05-08T00:59:41.469Z,15.61
2023-05-08T01:01:45.199Z,15.67
2023-05-08T01:03:48.497Z,15.57
2023-05-08T01:05:52.864Z,15.72
2023-05-08T01:07:55.767Z,15.75
2023-05-08T01:09:59.124Z,15.58
2023-05-08T01:12:09.071Z,15.58
2023-05-08T01:14:14.624Z,15.55
2023-05-08T01:16:18.914Z,15.58
2023-05-08T01:18:27.823Z,15.51
2023-05-08T01:20:43.968Z,15.46
2023-05-08T01:23:07.804Z,15.45
2023-05-08T01:25:36.598Z,15.43
2023-05-08T01:27:57.808Z,15.51
2023-05-08T01:30:23.002Z,15.53
2023-05-08T01:36:11.577Z,15.49
2023-05-08T01:38:22.410Z,15.57
2023-05-08T01:40:34.586Z,15.52
2023-05-08T01:42:46.392Z,15.58
2023-05-08T01:44:57.629Z,15.59
2023-05-08T01:47:01.421Z,15.52
2023-05-08T01:49:08.343Z,15.54
2023-05-08T01:51:18.427Z,15.53
2023-05-08T01:53:26.001Z,15.51
2023-05-08T01:55:32.869Z,15.45
2023-05-08T01:57:38.636Z,15.38
2023-05-08T01:59:43.304Z,15.34
2023-05-08T02:01:48.175Z,15.20
2023-05-08T02:03:52.008Z,15.08
2023-05-08T02:05:56.932Z,15.08
2023-05-08T02:08:02.124Z,15.07
2023-05-08T02:10:06.384Z,15.17
2023-05-08T02:12:09.875Z,15.19
2023-05-08T02:14:14.414Z,15.31
2023-05-08T02:16:18.282Z,15.33
2023-05-08T02:18:22.275Z,15.34
2023-05-08T02:20:25.318Z,15.33
2023-05-08T02:22:29.522Z,15.36
2023-05-08T02:24:35.834Z,15.42
2023-05-08T02:26:39.518Z,15.41
2023-05-08T02:28:42.688Z,15.42
2023-05-08T02:30:46.215Z,15.46
2023-05-08T02:32:50.621Z,15.48
2023-05-08T02:35:02.471Z,15.48
2023-05-08T02:37:06.689Z,15.38
2023-05-08T02:39:13.033Z,15.49
2023-05-08T02:41:19.066Z,15.52
2023-05-08T02:43:22.145Z,15.53
2023-05-08T02:45:27.853Z,15.52
2023-05-08T02:47:35.820Z,15.58
2023-05-08T02:49:44.868Z,15.61
2023-05-08T02:51:51.339Z,15.48
2023-05-08T02:53:57.541Z,15.52
2023-05-08T02:56:06.682Z,15.53
2023-05-08T02:58:15.074Z,15.47
2023-05-08T03:00:22.547Z,15.52
2023-05-08T03:02:30.956Z,15.53
2023-05-08T03:04:37.860Z,15.54
2023-05-08T03:06:44.255Z,15.52
2023-05-08T03:08:48.577Z,15.52
2023-05-08T03:10:53.761Z,15.54
2023-05-08T03:12:57.262Z,15.51
2023-05-08T03:15:05.922Z,15.53
2023-05-08T03:17:10.078Z,15.51
2023-05-08T03:19:17.167Z,15.51
2023-05-08T03:21:22.164Z,15.48
2023-05-08T03:23:26.224Z,15.51
2023-05-08T03:25:31.081Z,15.48
2023-05-08T03:27:34.437Z,15.41
2023-05-08T03:29:37.976Z,15.44
2023-05-08T03:31:42.726Z,15.50
2023-05-08T03:33:46.366Z,15.48
2023-05-08T03:35:49.512Z,15.50
2023-05-08T03:37:54.247Z,15.46
2023-05-08T03:39:58.209Z,15.43
2023-05-08T03:42:01.293Z,15.47
2023-05-08T03:44:05.790Z,15.45
2023-05-08T03:46:09.481Z,15.42
2023-05-08T03:48:15.427Z,15.44
2023-05-08T03:50:19.328Z,15.35
2023-05-08T03:52:22.266Z,15.36
2023-05-08T03:54:25.698Z,15.36
2023-05-08T03:56:29.360Z,15.39
2023-05-08T03:58:38.170Z,15.38
2023-05-08T04:00:48.811Z,15.30
2023-05-08T04:02:57.838Z,15.30
2023-05-08T04:05:08.137Z,15.23
2023-05-08T04:07:13.835Z,15.16
2023-05-08T04:09:26.199Z,15.19
2023-05-08T04:11:33.090Z,15.19
2023-05-08T04:13:41.569Z,15.17
2023-05-08T04:15:49.929Z,15.20
2023-05-08T04:17:55.634Z,15.21
2023-05-08T04:20:04.355Z,15.22
2023-05-08T04:22:08.718Z,15.20
2023-05-08T04:24:14.470Z,15.24
2023-05-08T04:26:18.598Z,15.27
2023-05-08T04:28:23.889Z,15.22
2023-05-08T04:30:27.406Z,15.28
2023-05-08T04:32:31.440Z,15.33
2023-05-08T04:34:35.177Z,15.38
2023-05-08T04:36:40.707Z,15.42
2023-05-08T04:38:45.711Z,15.45
2023-05-08T04:40:49.302Z,15.44
2023-05-08T04:42:52.573Z,15.44
2023-05-08T04:44:56.335Z,15.46
2023-05-08T04:46:59.452Z,15.50
2023-05-08T04:49:02.733Z,15.55
2023-05-08T04:51:07.026Z,15.56
2023-05-08T04:53:11.539Z,15.52
2023-05-08T04:55:15.018Z,15.20
2023-05-08T04:57:18.046Z,15.41
2023-05-08T04:59:21.224Z,15.37
2023-05-08T05:01:24.261Z,15.58
2023-05-08T05:03:27.694Z,15.63
2023-05-08T05:05:31.517Z,15.70
2023-05-08T05:07:35.150Z,15.73
2023-05-08T05:09:41.747Z,15.77
2023-05-08T05:11:45.594Z,15.83
2023-05-08T05:13:48.805Z,15.90
2023-05-08T05:15:54.523Z,15.97
2023-05-08T05:17:59.717Z,16.02
2023-05-08T05:20:03.102Z,16.10
2023-05-08T05:22:06.260Z,16.14
2023-05-08T05:24:11.451Z,16.15
2023-05-08T05:26:17.238Z,16.14
2023-05-08T05:28:21.205Z,16.11
2023-05-08T05:30:24.978Z,16.13
2023-05-08T05:32:27.970Z,16.19
2023-05-08T05:34:31.250Z,16.19
2023-05-08T05:36:34.989Z,16.22
2023-05-08T05:38:38.314Z,16.19
2023-05-08T05:40:42.613Z,16.16
2023-05-08T05:42:51.631Z,16.31
2023-05-08T05:44:59.155Z,16.36
2023-05-08T05:47:04.462Z,16.39
2023-05-08T05:49:09.308Z,16.41
2023-05-08T05:51:13.706Z,16.57
2023-05-08T05:53:18.030Z,16.69
2023-05-08T05:55:22.562Z,16.86
2023-05-08T05:57:26.091Z,17.01
2023-05-08T05:59:32.891Z,17.19
2023-05-08T06:01:36.652Z,17.48
2023-05-08T06:03:43.995Z,17.78
2023-05-08T06:05:49.107Z,18.08
2023-05-08T06:07:53.400Z,18.09
2023-05-08T06:10:01.754Z,18.35
2023-05-08T06:12:05.601Z,18.43
2023-05-08T06:14:09.838Z,18.62
2023-05-08T06:16:17.579Z,18.40
2023-05-08T06:18:23.295Z,18.02
2023-05-08T06:20:28.964Z,18.43
2023-05-08T06:22:31.939Z,18.51
2023-05-08T06:24:35.612Z,18.48
2023-05-08T06:26:39.126Z,18.47
2023-05-08T06:28:42.388Z,18.20
2023-05-08T06:30:49.641Z,17.84
2023-05-08T06:32:55.880Z,17.86
2023-05-08T06:35:02.628Z,18.31
2023-05-08T06:37:10.969Z,18.48
2023-05-08T06:39:15.196Z,18.23
2023-05-08T06:41:22.054Z,18.32
2023-05-08T06:43:25.279Z,18.47
2023-05-08T06:45:28.653Z,18.52
2023-05-08T06:47:34.560Z,18.57
2023-05-08T06:49:40.206Z,18.73
2023-05-08T06:51:43.704Z,18.70
2023-05-08T06:53:50.745Z,18.70
2023-05-08T06:55:54.518Z,18.75
2023-05-08T06:57:57.487Z,18.48
2023-05-08T07:00:00.861Z,18.42
2023-05-08T07:02:04.144Z,18.28
2023-05-08T07:04:07.766Z,18.49
2023-05-08T07:06:12.064Z,18.62
2023-05-08T07:08:15.287Z,18.45
2023-05-08T07:10:23.417Z,18.54
2023-05-08T07:12:29.501Z,18.31
2023-05-08T07:14:33.336Z,18.58
2023-05-08T07:16:37.797Z,18.35
2023-05-08T07:18:40.796Z,18.44
2023-05-08T07:20:46.075Z,18.43
2023-05-08T07:22:50.404Z,18.59
2023-05-08T07:24:55.362Z,18.55
2023-05-08T07:26:59.650Z,18.44
2023-05-08T07:29:02.697Z,18.61
2023-05-08T07:31:07.407Z,18.71
2023-05-08T07:33:10.490Z,18.50
2023-05-08T07:35:13.996Z,18.60
2023-05-08T07:37:17.484Z,18.62
2023-05-08T07:39:22.653Z,18.52
2023-05-08T07:41:28.205Z,18.63
2023-05-08T07:43:31.450Z,18.58
2023-05-08T07:45:35.082Z,18.66
2023-05-08T07:47:40.187Z,18.75
2023-05-08T07:49:44.806Z,18.83
2023-05-08T07:51:49.105Z,18.88
2023-05-08T07:53:52.683Z,19.02
2023-05-08T07:55:57.382Z,19.06
2023-05-08T07:58:00.587Z,19.14
2023-05-08T08:00:03.791Z,18.78
2023-05-08T08:02:16.762Z,19.00
2023-05-08T08:04:20.004Z,18.91
2023-05-08T08:06:23.292Z,19.13
2023-05-08T08:08:26.761Z,19.09
2023-05-08T08:10:29.886Z,19.27
2023-05-08T08:12:34.476Z,19.49
2023-05-08T08:14:37.462Z,19.10
2023-05-08T08:16:40.761Z,19.29
2023-05-08T08:18:43.713Z,19.31
2023-05-08T08:20:47.197Z,19.53
2023-05-08T08:22:50.162Z,19.57
2023-05-08T08:24:55.274Z,19.60
2023-05-08T08:26:58.788Z,19.78
2023-05-08T08:29:03.313Z,19.56
2023-05-08T08:31:06.310Z,19.40
2023-05-08T08:33:09.453Z,19.44
2023-05-08T08:35:14.954Z,19.54
2023-05-08T08:37:23.547Z,19.80
2023-05-08T08:39:28.425Z,19.73
2023-05-08T08:41:34.455Z,19.96
2023-05-08T08:43:44.026Z,19.97
2023-05-08T08:45:50.199Z,20.10
2023-05-08T08:47:56.202Z,20.23
2023-05-08T08:50:04.168Z,20.33
2023-05-08T08:52:12.285Z,20.41
2023-05-08T08:54:22.788Z,20.53
2023-05-08T08:56:28.268Z,20.62
2023-05-08T08:58:38.071Z,20.63
2023-05-08T09:00:42.631Z,20.46
2023-05-08T09:02:47.045Z,20.62
2023-05-08T09:04:51.480Z,20.36
2023-05-08T09:06:54.973Z,20.24
2023-05-08T09:08:58.224Z,20.59
2023-05-08T09:11:03.701Z,20.69
2023-05-08T09:13:06.965Z,20.58
2023-05-08T09:15:11.499Z,20.40
2023-05-08T09:17:14.557Z,20.66
2023-05-08T09:19:25.627Z,20.69
2023-05-08T09:21:31.549Z,20.59
2023-05-08T09:23:37.278Z,20.84
2023-05-08T09:25:44.616Z,20.45
2023-05-08T09:27:52.447Z,20.82
2023-05-08T09:30:03.254Z,20.52
2023-05-08T09:32:06.740Z,20.66
2023-05-08T09:34:10.441Z,20.72
2023-05-08T09:36:28.620Z,20.91
2023-05-08T09:38:44.687Z,20.49
2023-05-08T09:40:48.385Z,20.86
2023-05-08T09:42:52.628Z,21.30
2023-05-08T09:44:57.443Z,20.82
2023-05-08T09:47:16.187Z,20.94
2023-05-08T09:49:21.025Z,20.55
2023-05-08T09:51:25.443Z,20.48
2023-05-08T09:53:39.683Z,20.58
2023-05-08T09:55:48.947Z,20.91
2023-05-08T09:57:56.657Z,20.66
2023-05-08T10:00:08.785Z,20.66
2023-05-08T10:02:16.388Z,20.72
2023-05-08T10:04:33.442Z,20.77
2023-05-08T10:06:37.523Z,20.91
2023-05-08T10:08:42.882Z,20.88
2023-05-08T10:10:45.988Z,20.50
2023-05-08T10:12:48.990Z,21.02
2023-05-08T10:14:52.219Z,21.17
2023-05-08T10:16:56.096Z,20.97
2023-05-08T10:19:02.226Z,20.93
2023-05-08T10:21:07.976Z,21.23
2023-05-08T10:23:12.821Z,21.00
2023-05-08T10:25:22.341Z,21.01
2023-05-08T10:27:35.011Z,20.71
2023-05-08T10:29:43.510Z,20.85
2023-05-08T10:31:48.003Z,20.91
2023-05-08T10:33:52.401Z,20.50
2023-05-08T10:35:56.126Z,20.48
2023-05-08T10:37:59.884Z,20.59
2023-05-08T10:40:04.076Z,20.36
2023-05-08T10:42:08.784Z,20.62
2023-05-08T10:44:11.854Z,20.63
2023-05-08T10:46:19.556Z,20.78
2023-05-08T10:48:28.044Z,20.83
2023-05-08T10:50:40.713Z,21.04
2023-05-08T10:52:52.775Z,20.94
2023-05-08T10:55:17.646Z,21.15
2023-05-08T10:57:22.038Z,21.15
2023-05-08T10:59:25.068Z,21.16
2023-05-08T11:01:28.271Z,21.45
2023-05-08T11:03:33.235Z,21.69
2023-05-08T11:05:47.376Z,21.77
2023-05-08T11:07:57.422Z,21.94
2023-05-08T11:10:08.866Z,22.00
2023-05-08T11:12:24.700Z,21.68
2023-05-08T11:14:28.962Z,21.43
2023-05-08T11:17:05.037Z,21.49
2023-05-08T11:19:17.579Z,21.09
2023-05-08T11:21:22.278Z,21.04
2023-05-08T11:23:26.960Z,21.21
2023-05-08T11:25:43.572Z,21.43
2023-05-08T11:28:17.589Z,21.07
2023-05-08T11:30:23.956Z,21.24
2023-05-08T11:32:56.829Z,21.21
2023-05-08T11:34:59.849Z,21.33
2023-05-08T11:37:03.024Z,21.07
2023-05-08T11:39:12.944Z,21.31
2023-05-08T11:41:23.059Z,21.49
2023-05-08T11:44:00.842Z,21.49
2023-05-08T11:46:05.041Z,21.15
2023-05-08T11:48:08.216Z,21.10
2023-05-08T11:50:13.181Z,21.38
2023-05-08T11:52:20.929Z,21.25
2023-05-08T11:54:24.837Z,21.09
2023-05-08T11:56:27.732Z,21.07
2023-05-08T11:58:32.091Z,21.23
2023-05-08T12:00:35.413Z,21.20
2023-05-08T12:02:39.120Z,20.69
2023-05-08T12:04:46.936Z,20.67
2023-05-08T12:06:51.429Z,20.77
2023-05-08T12:08:54.496Z,20.78
2023-05-08T12:10:59.021Z,20.62
2023-05-08T12:13:02.020Z,20.54
2023-05-08T12:15:10.359Z,20.53
2023-05-08T12:17:18.129Z,20.53
2023-05-08T12:19:21.417Z,20.69
2023-05-08T12:21:24.953Z,20.62
2023-05-08T12:23:29.325Z,20.63
2023-05-08T12:25:32.407Z,20.52
2023-05-08T12:27:35.522Z,20.12
2023-05-08T12:29:38.893Z,20.33
2023-05-08T12:31:43.483Z,20.41
2023-05-08T12:33:46.923Z,20.38
2023-05-08T12:35:50.208Z,19.99
2023-05-08T12:37:53.515Z,20.21
2023-05-08T12:39:56.972Z,20.58
2023-05-08T12:42:01.297Z,20.71
2023-05-08T12:44:04.308Z,20.98
2023-05-08T12:46:07.308Z,21.37
2023-05-08T12:48:12.913Z,21.48
2023-05-08T12:50:16.734Z,21.41
2023-05-08T12:52:20.016Z,21.77
2023-05-08T12:54:34.565Z,21.75
2023-05-08T12:56:43.781Z,21.61
2023-05-08T12:58:46.854Z,21.44
2023-05-08T13:00:51.834Z,21.61
2023-05-08T13:02:55.419Z,21.73
2023-05-08T13:05:03.532Z,22.03
2023-05-08T13:07:06.502Z,22.33
2023-05-08T13:09:09.512Z,22.06
2023-05-08T13:11:13.225Z,22.07
2023-05-08T13:13:17.415Z,22.07
2023-05-08T13:15:21.206Z,21.81
2023-05-08T13:17:25.664Z,21.77
2023-05-08T13:19:28.648Z,22.08
2023-05-08T13:21:33.089Z,22.14
2023-05-08T13:23:37.352Z,22.09
2023-05-08T13:25:41.762Z,22.15
2023-05-08T13:27:44.972Z,22.13
2023-05-08T13:29:48.137Z,21.94
2023-05-08T13:31:51.355Z,21.98
2023-05-08T13:33:54.540Z,21.89
2023-05-08T13:35:57.397Z,21.87
2023-05-08T13:38:02.509Z,21.51
2023-05-08T13:40:06.485Z,21.46
2023-05-08T13:42:09.494Z,21.68
2023-05-08T13:44:13.398Z,21.53
2023-05-08T13:46:16.724Z,21.63
2023-05-08T13:48:19.647Z,21.63
2023-05-08T13:50:22.968Z,21.64
2023-05-08T13:52:26.358Z,21.61
2023-05-08T13:54:30.826Z,21.56
2023-05-08T13:56:34.391Z,21.49
2023-05-08T13:58:37.713Z,21.50
2023-05-08T14:00:40.820Z,21.37
2023-05-08T14:02:43.900Z,21.39
2023-05-08T14:04:47.588Z,21.46
2023-05-08T14:06:51.834Z,21.29
2023-05-08T14:08:56.903Z,21.30
2023-05-08T14:11:02.217Z,21.53
2023-05-08T14:13:07.197Z,21.42
2023-05-08T14:15:12.089Z,21.47
2023-05-08T14:17:15.418Z,21.41
2023-05-08T14:19:18.450Z,21.25
2023-05-08T14:21:21.809Z,21.41
2023-05-08T14:23:25.152Z,21.13
2023-05-08T14:25:28.351Z,21.34
2023-05-08T14:27:35.562Z,21.26
2023-05-08T14:29:38.860Z,21.28
2023-05-08T14:31:42.016Z,21.31
2023-05-08T14:33:45.307Z,21.30
2023-05-08T14:35:48.506Z,21.32
2023-05-08T14:37:51.356Z,21.27
2023-05-08T14:39:56.161Z,21.14
2023-05-08T14:42:20.819Z,21.31
2023-05-08T14:44:24.597Z,20.94
2023-05-08T14:46:28.279Z,20.89
2023-05-08T14:48:31.422Z,20.74
2023-05-08T14:50:34.745Z,20.89
2023-05-08T14:52:38.333Z,20.93
2023-05-08T14:54:41.785Z,20.94
2023-05-08T14:56:47.766Z,20.99
2023-05-08T14:58:51.577Z,20.79
2023-05-08T15:00:56.273Z,20.73
2023-05-08T15:02:59.326Z,20.93
2023-05-08T15:05:07.968Z,21.13
2023-05-08T15:07:11.465Z,21.10
2023-05-08T15:09:16.346Z,20.92
2023-05-08T15:11:19.709Z,21.17
2023-05-08T15:13:22.987Z,21.15
2023-05-08T15:15:25.965Z,21.12
2023-05-08T15:17:31.707Z,21.05
2023-05-08T15:19:34.796Z,20.84
2023-05-08T15:21:37.827Z,21.16
2023-05-08T15:23:40.776Z,21.10
2023-05-08T15:25:43.874Z,21.00
2023-05-08T15:27:52.438Z,21.16
2023-05-08T15:29:55.960Z,21.32
2023-05-08T15:31:59.148Z,21.38
2023-05-08T15:34:03.819Z,21.14
2023-05-08T15:36:07.224Z,21.24
2023-05-08T15:38:11.635Z,21.40
2023-05-08T15:40:15.834Z,21.27
2023-05-08T15:42:18.805Z,21.24
2023-05-08T15:44:22.160Z,21.38
2023-05-08T15:46:25.929Z,21.17
2023-05-08T15:48:29.057Z,21.15
2023-05-08T15:50:33.326Z,21.12
2023-05-08T15:52:36.717Z,21.33
2023-05-08T15:54:39.717Z,21.22
2023-05-08T15:56:42.955Z,21.25
2023-05-08T15:58:46.313Z,21.05
2023-05-08T16:00:49.816Z,21.06
2023-05-08T16:02:52.896Z,21.22
2023-05-08T16:04:55.873Z,21.37
2023-05-08T16:07:00.971Z,21.38
2023-05-08T16:09:04.025Z,21.26
2023-05-08T16:11:07.141Z,21.23
2023-05-08T16:13:10.432Z,21.25
2023-05-08T16:15:15.066Z,21.14
2023-05-08T16:17:18.365Z,21.27
2023-05-08T16:19:21.338Z,21.19
2023-05-08T16:21:26.116Z,21.10
2023-05-08T16:23:30.827Z,20.90
2023-05-08T16:25:34.231Z,20.94
2023-05-08T16:27:37.348Z,20.91
2023-05-08T16:29:40.596Z,20.78
2023-05-08T16:31:43.636Z,20.79
2023-05-08T16:33:49.122Z,20.91
2023-05-08T16:35:52.469Z,20.92
2023-05-08T16:37:55.460Z,20.82
2023-05-08T16:39:59.863Z,20.90
2023-05-08T16:42:03.261Z,20.81
2023-05-08T16:44:06.534Z,20.90
2023-05-08T16:46:09.769Z,20.78
2023-05-08T16:48:12.864Z,20.71
2023-05-08T16:50:16.085Z,20.75
2023-05-08T16:52:19.617Z,20.59
2023-05-08T16:54:22.630Z,20.65
2023-05-08T16:56:27.246Z,20.72
2023-05-08T16:58:30.216Z,20.72
2023-05-08T17:00:33.293Z,20.70
2023-05-08T17:02:36.470Z,20.57
2023-05-08T17:04:39.418Z,20.72
2023-05-08T17:06:42.370Z,20.76
2023-05-08T17:08:46.848Z,20.82
2023-05-08T17:10:50.031Z,20.76
2023-05-08T17:12:54.971Z,20.67
2023-05-08T17:14:58.301Z,20.78
2023-05-08T17:17:01.441Z,20.86
2023-05-08T17:19:04.757Z,20.82
2023-05-08T17:21:07.849Z,20.66
2023-05-08T17:23:12.032Z,20.61
2023-05-08T17:25:16.135Z,20.55
2023-05-08T17:27:19.840Z,20.43
2023-05-08T17:29:27.234Z,20.40
2023-05-08T17:31:32.610Z,20.37
2023-05-08T17:33:35.846Z,20.33
2023-05-08T17:35:39.191Z,20.46
2023-05-08T17:37:42.950Z,20.53
2023-05-08T17:39:46.793Z,20.52
2023-05-08T17:41:51.132Z,20.52
2023-05-08T17:43:55.748Z,20.48
2023-05-08T17:46:01.765Z,20.43
2023-05-08T17:48:04.980Z,20.38
2023-05-08T17:50:11.987Z,20.50
2023-05-08T17:52:17.277Z,20.40
2023-05-08T17:54:23.151Z,20.51
2023-05-08T17:56:26.450Z,20.48
2023-05-08T17:58:30.400Z,20.44
2023-05-08T18:00:37.658Z,20.39
2023-05-08T18:02:44.779Z,20.34
2023-05-08T18:04:49.672Z,20.30
2023-05-08T18:06:53.903Z,20.18
2023-05-08T18:08:57.237Z,20.21
2023-05-08T18:11:01.418Z,20.03
2023-05-08T18:13:04.913Z,20.02
2023-05-08T18:15:08.953Z,19.97
2023-05-08T18:17:15.594Z,20.01
2023-05-08T18:19:20.123Z,19.91
2023-05-08T18:21:25.242Z,19.97
2023-05-08T18:23:28.404Z,20.07
2023-05-08T18:25:31.272Z,20.05
2023-05-08T18:27:35.174Z,20.08
2023-05-08T18:29:38.329Z,20.08
2023-05-08T18:31:42.277Z,20.19
2023-05-08T18:33:45.902Z,20.05
2023-05-08T18:35:52.005Z,19.93
2023-05-08T18:37:55.373Z,19.99
2023-05-08T18:39:58.308Z,20.01
2023-05-08T18:42:02.046Z,19.92
2023-05-08T18:44:06.643Z,19.75
2023-05-08T18:46:16.233Z,19.84
2023-05-08T18:48:19.439Z,19.70
2023-05-08T18:50:22.515Z,19.72
2023-05-08T18:52:29.956Z,19.75
2023-05-08T18:54:36.063Z,19.77
2023-05-08T18:56:39.861Z,19.83
2023-05-08T18:58:42.988Z,19.75
2023-05-08T19:00:46.118Z,19.64
2023-05-08T19:02:50.101Z,19.74
2023-05-08T19:04:53.401Z,19.70
2023-05-08T19:06:57.204Z,19.78
2023-05-08T19:09:01.948Z,19.76
2023-05-08T19:11:05.650Z,19.64
2023-05-08T19:13:09.531Z,19.72
2023-05-08T19:15:14.371Z,19.54
2023-05-08T19:17:18.014Z,19.58
2023-05-08T19:19:21.842Z,19.60
2023-05-08T19:21:25.128Z,19.66
2023-05-08T19:23:28.246Z,19.60
2023-05-08T19:25:33.390Z,19.53
2023-05-08T19:27:37.291Z,19.60
2023-05-08T19:29:40.963Z,19.28
2023-05-08T19:31:44.730Z,19.49
2023-05-08T19:33:50.442Z,19.43
2023-05-08T19:35:53.502Z,19.42
2023-05-08T19:37:57.063Z,19.48
2023-05-08T19:40:00.380Z,19.52
2023-05-08T19:42:07.597Z,19.48
2023-05-08T19:44:11.060Z,19.25
2023-05-08T19:46:14.382Z,19.45
2023-05-08T19:48:19.593Z,19.51
2023-05-08T19:50:24.405Z,19.53
2023-05-08T19:52:27.650Z,19.44
2023-05-08T19:54:31.075Z,19.34
2023-05-08T19:56:34.471Z,19.32
2023-05-08T19:58:38.800Z,19.27
2023-05-08T20:00:41.852Z,19.21
2023-05-08T20:02:45.205Z,19.11
2023-05-08T20:05:14.478Z,19.09
2023-05-08T20:07:11.481Z,19.09
2023-05-08T20:09:14.894Z,19.04
2023-05-08T20:11:18.219Z,19.01
2023-05-08T20:13:21.839Z,19.00
2023-05-08T20:15:28.699Z,18.99
2023-05-08T20:17:31.987Z,18.83
2023-05-08T20:19:38.327Z,18.85
2023-05-08T20:21:41.643Z,18.81
2023-05-08T20:23:46.108Z,18.88
2023-05-08T20:25:49.474Z,18.80
2023-05-08T20:27:53.134Z,18.66
2023-05-08T20:29:56.380Z,18.65
2023-05-08T20:32:02.345Z,18.65
2023-05-08T20:34:06.118Z,18.63
2023-05-08T20:36:10.640Z,18.65
2023-05-08T20:38:14.853Z,18.59
2023-05-08T20:40:17.808Z,18.55
2023-05-08T20:42:25.853Z,18.39
2023-05-08T20:44:29.385Z,18.47
2023-05-08T20:46:32.455Z,18.42
2023-05-08T20:48:36.717Z,18.42
2023-05-08T20:50:39.768Z,18.42
2023-05-08T20:52:43.116Z,18.44
2023-05-08T20:54:48.004Z,18.41
2023-05-08T20:56:50.978Z,18.31
2023-05-08T20:58:54.283Z,18.37
2023-05-08T21:00:57.688Z,18.36
2023-05-08T21:03:02.198Z,18.37
2023-05-08T21:05:10.337Z,18.37
2023-05-08T21:07:13.634Z,18.28
2023-05-08T21:09:17.613Z,18.15
2023-05-08T21:11:24.702Z,18.15
2023-05-08T21:13:28.089Z,18.06
2023-05-08T21:15:32.395Z,18.05
2023-05-08T21:17:36.286Z,18.12
2023-05-08T21:19:39.797Z,18.06
2023-05-08T21:21:46.952Z,18.15
2023-05-08T21:23:50.364Z,18.16
2023-05-08T21:25:55.242Z,18.13
2023-05-08T21:27:59.226Z,18.07
2023-05-08T21:30:02.310Z,18.04
2023-05-08T21:32:07.003Z,18.04
2023-05-08T21:34:11.417Z,17.86
2023-05-08T21:36:14.941Z,18.03
2023-05-08T21:38:20.312Z,18.04
2023-05-08T21:40:24.086Z,18.12
2023-05-08T21:42:28.078Z,18.03
2023-05-08T21:44:39.744Z,18.00
2023-05-08T21:46:43.134Z,18.08
2023-05-08T21:48:46.296Z,18.10
2023-05-08T21:50:49.276Z,18.06
2023-05-08T21:52:55.970Z,17.90
2023-05-08T21:55:01.594Z,18.03
2023-05-08T21:57:06.536Z,18.12
2023-05-08T21:59:09.870Z,18.13
2023-05-08T22:01:12.836Z,18.09
2023-05-08T22:03:15.973Z,18.09
2023-05-08T22:05:19.108Z,18.12
2023-05-08T22:07:22.641Z,18.14
2023-05-08T22:09:25.783Z,18.18
2023-05-08T22:11:31.601Z,18.21
2023-05-08T22:13:37.482Z,18.20
2023-05-08T22:15:41.167Z,18.19
2023-05-08T22:17:44.200Z,18.23
2023-05-08T22:19:49.924Z,18.26
2023-05-08T22:21:53.424Z,18.24
2023-05-08T22:23:58.986Z,18.24
2023-05-08T22:26:03.248Z,18.19
2023-05-08T22:28:07.906Z,18.18
2023-05-08T22:30:11.833Z,18.07
2023-05-08T22:32:15.401Z,18.08
2023-05-08T22:34:18.705Z,18.11
2023-05-08T22:36:23.992Z,18.13
2023-05-08T22:38:27.016Z,18.15
2023-05-08T22:40:31.355Z,18.15
2023-05-08T22:42:35.730Z,18.17
2023-05-08T22:44:40.642Z,18.14
2023-05-08T22:46:44.121Z,18.13
2023-05-08T22:48:48.596Z,18.14
2023-05-08T22:50:52.686Z,18.06
2023-05-08T22:52:56.743Z,18.09
2023-05-08T22:54:59.805Z,18.07
2023-05-08T22:57:03.955Z,18.06
2023-05-08T22:59:07.491Z,17.93
2023-05-08T23:01:14.704Z,17.86
2023-05-08T23:03:17.916Z,17.75
2023-05-08T23:05:21.121Z,17.68
2023-05-08T23:07:26.755Z,17.61
2023-05-08T23:09:30.867Z,17.61
2023-05-08T23:11:34.629Z,17.69
2023-05-08T23:13:39.119Z,17.76
2023-05-08T23:15:43.141Z,17.78
2023-05-08T23:17:48.411Z,17.75
2023-05-08T23:19:51.840Z,17.71
2023-05-08T23:21:55.024Z,17.60
2023-05-08T23:24:00.239Z,17.63
2023-05-08T23:26:05.450Z,17.69
2023-05-08T23:28:08.400Z,17.75
2023-05-08T23:30:13.251Z,17.80
2023-05-08T23:32:16.445Z,17.85
2023-05-08T23:34:20.726Z,17.84
2023-05-08T23:36:23.862Z,17.72
2023-05-08T23:38:27.149Z,17.66
2023-05-08T23:40:32.291Z,17.57
2023-05-08T23:42:37.139Z,17.49
2023-05-08T23:44:40.738Z,17.40
2023-05-08T23:46:43.949Z,17.39
2023-05-08T23:48:47.005Z,17.30
2023-05-08T23:50:51.343Z,17.30
2023-05-08T23:52:54.356Z,17.24
2023-05-08T23:54:57.432Z,17.16
2023-05-08T23:57:00.372Z,17.23
2023-05-08T23:59:03.528Z,17.29
